sensor_id;sensor_type;location;lat;lon;timestamp;pressure;altitude;pressure_sealevel;temperature;humidity
36630;BME280;36256;42.154;23.002;2024-03-08T00:00:00;97244.03;;;7.06;100.00
36630;BME280;36256;42.154;23.002;2024-03-08T00:02:36;97242.47;;;7.05;100.00
36630;BME280;36256;42.154;23.002;2024-03-08T00:05:05;97247.34;;;7.01;100.00
36630;BME280;36256;42.154;23.002;2024-03-08T00:07:32;97228.13;;;6.87;100.00
36630;BME280;36256;42.154;23.002;2024-03-08T00:10:02;97239.84;;;6.98;100.00
36630;BME280;36256;42.154;23.002;2024-03-08T00:12:29;97225.09;;;6.97;100.00
36630;BME280;36256;42.154;23.002;2024-03-08T00:14:57;97236.53;;;7.03;100.00
36630;BME280;36256;42.154;23.002;2024-03-08T00:17:24;97226.94;;;7.04;100.00
36630;BME280;36256;42.154;23.002;2024-03-08T00:19:54;97224.53;;;6.86;100.00
36630;BME280;36256;42.154;23.002;2024-03-08T00:22:20;97231.56;;;6.75;100.00
36630;BME280;36256;42.154;23.002;2024-03-08T00:24:48;97233.34;;;6.85;100.00
36630;BME280;36256;42.154;23.002;2024-03-08T00:27:17;97228.78;;;6.75;100.00
36630;BME280;36256;42.154;23.002;2024-03-08T00:29:48;97227.19;;;6.74;100.00
36630;BME280;36256;42.154;23.002;2024-03-08T00:32:15;97220.31;;;6.78;100.00
36630;BME280;36256;42.154;23.002;2024-03-08T00:34:43;97220.44;;;6.91;100.00
36630;BME280;36256;42.154;23.002;2024-03-08T00:37:11;97229.16;;;6.93;100.00
36630;BME280;36256;42.154;23.002;2024-03-08T00:39:38;97211.59;;;6.96;100.00
36630;BME280;36256;42.154;23.002;2024-03-08T00:42:05;97206.81;;;6.96;100.00
36630;BME280;36256;42.154;23.002;2024-03-08T00:44:31;97207.56;;;6.97;100.00
36630;BME280;36256;42.154;23.002;2024-03-08T00:46:58;97207.50;;;7.00;100.00
36630;BME280;36256;42.154;23.002;2024-03-08T00:49:25;97205.84;;;7.03;100.00
36630;BME280;36256;42.154;23.002;2024-03-08T00:51:52;97203.41;;;7.05;100.00
36630;BME280;36256;42.154;23.002;2024-03-08T00:54:21;97195.91;;;7.02;100.00
36630;BME280;36256;42.154;23.002;2024-03-08T00:56:48;97194.59;;;7.06;100.00
36630;BME280;36256;42.154;23.002;2024-03-08T00:59:14;97196.97;;;7.08;100.00
36630;BME280;36256;42.154;23.002;2024-03-08T01:01:41;97182.03;;;6.98;100.00
36630;BME280;36256;42.154;23.002;2024-03-08T01:04:08;97189.28;;;6.96;100.00
36630;BME280;36256;42.154;23.002;2024-03-08T01:06:34;97191.78;;;6.90;100.00
36630;BME280;36256;42.154;23.002;2024-03-08T01:09:06;97186.28;;;6.87;100.00
36630;BME280;36256;42.154;23.002;2024-03-08T01:11:34;97181.41;;;6.91;100.00
36630;BME280;36256;42.154;23.002;2024-03-08T01:14:00;97184.47;;;6.96;100.00
36630;BME280;36256;42.154;23.002;2024-03-08T01:16:27;97186.84;;;6.98;100.00
36630;BME280;36256;42.154;23.002;2024-03-08T01:19:03;97180.47;;;6.97;100.00
36630;BME280;36256;42.154;23.002;2024-03-08T01:21:30;97183.69;;;6.96;100.00
36630;BME280;36256;42.154;23.002;2024-03-08T01:23:57;97175.81;;;6.91;100.00
36630;BME280;36256;42.154;23.002;2024-03-08T01:26:28;97179.66;;;6.97;100.00
36630;BME280;36256;42.154;23.002;2024-03-08T01:28:55;97175.69;;;6.98;100.00
36630;BME280;36256;42.154;23.002;2024-03-08T01:31:22;97177.25;;;6.99;100.00
36630;BME280;36256;42.154;23.002;2024-03-08T01:33:52;97172.69;;;6.89;100.00
36630;BME280;36256;42.154;23.002;2024-03-08T01:36:19;97174.28;;;6.90;100.00
36630;BME280;36256;42.154;23.002;2024-03-08T01:38:46;97176.28;;;6.70;100.00
36630;BME280;36256;42.154;23.002;2024-03-08T01:41:13;97174.75;;;6.69;100.00
36630;BME280;36256;42.154;23.002;2024-03-08T01:43:40;97166.38;;;6.69;100.00
36630;BME280;36256;42.154;23.002;2024-03-08T01:46:07;97165.72;;;6.61;100.00
36630;BME280;36256;42.154;23.002;2024-03-08T01:48:36;97173.81;;;6.56;100.00
36630;BME280;36256;42.154;23.002;2024-03-08T01:51:04;97166.25;;;6.56;100.00
36630;BME280;36256;42.154;23.002;2024-03-08T01:53:32;97176.59;;;6.56;100.00
36630;BME280;36256;42.154;23.002;2024-03-08T01:55:59;97171.47;;;6.54;100.00
36630;BME280;36256;42.154;23.002;2024-03-08T01:58:29;97171.88;;;6.53;100.00
36630;BME280;36256;42.154;23.002;2024-03-08T02:00:57;97176.75;;;6.49;100.00
36630;BME280;36256;42.154;23.002;2024-03-08T02:03:32;97170.91;;;6.43;100.00
36630;BME280;36256;42.154;23.002;2024-03-08T02:05:59;97175.34;;;6.41;100.00
36630;BME280;36256;42.154;23.002;2024-03-08T02:08:26;97172.53;;;6.41;100.00
36630;BME280;36256;42.154;23.002;2024-03-08T02:10:53;97164.84;;;6.28;100.00
36630;BME280;36256;42.154;23.002;2024-03-08T02:13:20;97176.34;;;6.30;100.00
36630;BME280;36256;42.154;23.002;2024-03-08T02:15:57;97176.47;;;6.23;100.00
36630;BME280;36256;42.154;23.002;2024-03-08T02:18:29;97172.69;;;6.14;100.00
36630;BME280;36256;42.154;23.002;2024-03-08T02:20:57;97171.06;;;6.16;100.00
36630;BME280;36256;42.154;23.002;2024-03-08T02:23:26;97167.91;;;6.14;100.00
36630;BME280;36256;42.154;23.002;2024-03-08T02:25:55;97171.91;;;6.13;100.00
36630;BME280;36256;42.154;23.002;2024-03-08T02:28:25;97181.50;;;6.12;100.00
36630;BME280;36256;42.154;23.002;2024-03-08T02:30:52;97181.97;;;6.07;100.00
36630;BME280;36256;42.154;23.002;2024-03-08T02:33:23;97179.97;;;6.08;100.00
36630;BME280;36256;42.154;23.002;2024-03-08T02:35:54;97169.16;;;5.90;100.00
36630;BME280;36256;42.154;23.002;2024-03-08T02:38:22;97178.59;;;5.96;100.00
36630;BME280;36256;42.154;23.002;2024-03-08T02:40:53;97189.63;;;6.03;100.00
36630;BME280;36256;42.154;23.002;2024-03-08T02:43:21;97194.09;;;5.97;100.00
36630;BME280;36256;42.154;23.002;2024-03-08T02:45:51;97189.63;;;5.80;100.00
36630;BME280;36256;42.154;23.002;2024-03-08T02:48:22;97185.16;;;5.86;100.00
36630;BME280;36256;42.154;23.002;2024-03-08T02:50:49;97191.16;;;5.85;100.00
36630;BME280;36256;42.154;23.002;2024-03-08T02:53:18;97194.75;;;5.82;100.00
36630;BME280;36256;42.154;23.002;2024-03-08T02:55:48;97190.81;;;5.79;100.00
36630;BME280;36256;42.154;23.002;2024-03-08T02:58:16;97190.78;;;5.83;100.00
36630;BME280;36256;42.154;23.002;2024-03-08T03:01:05;97197.09;;;5.83;100.00
36630;BME280;36256;42.154;23.002;2024-03-08T03:03:33;97201.88;;;5.86;100.00
36630;BME280;36256;42.154;23.002;2024-03-08T03:06:00;97199.44;;;5.88;100.00
36630;BME280;36256;42.154;23.002;2024-03-08T03:08:27;97197.19;;;5.80;100.00
36630;BME280;36256;42.154;23.002;2024-03-08T03:10:54;97205.09;;;5.85;100.00
36630;BME280;36256;42.154;23.002;2024-03-08T03:13:24;97207.00;;;5.88;100.00
36630;BME280;36256;42.154;23.002;2024-03-08T03:15:50;97196.31;;;5.86;100.00
36630;BME280;36256;42.154;23.002;2024-03-08T03:18:17;97199.81;;;5.90;100.00
36630;BME280;36256;42.154;23.002;2024-03-08T03:20:48;97204.16;;;5.91;100.00
36630;BME280;36256;42.154;23.002;2024-03-08T03:23:15;97211.31;;;5.92;100.00
36630;BME280;36256;42.154;23.002;2024-03-08T03:25:47;97206.09;;;5.94;100.00
36630;BME280;36256;42.154;23.002;2024-03-08T03:28:14;97205.00;;;5.88;100.00
36630;BME280;36256;42.154;23.002;2024-03-08T03:30:45;97217.59;;;5.96;100.00
36630;BME280;36256;42.154;23.002;2024-03-08T03:33:13;97219.91;;;6.01;100.00
36630;BME280;36256;42.154;23.002;2024-03-08T03:35:42;97215.03;;;6.05;100.00
36630;BME280;36256;42.154;23.002;2024-03-08T03:38:13;97207.31;;;5.93;100.00
36630;BME280;36256;42.154;23.002;2024-03-08T03:40:46;97214.69;;;6.03;100.00
36630;BME280;36256;42.154;23.002;2024-03-08T03:43:15;97222.50;;;5.89;100.00
36630;BME280;36256;42.154;23.002;2024-03-08T03:45:44;97211.28;;;5.69;100.00
36630;BME280;36256;42.154;23.002;2024-03-08T03:48:11;97218.91;;;5.65;100.00
36630;BME280;36256;42.154;23.002;2024-03-08T03:50:38;97213.34;;;5.65;100.00
36630;BME280;36256;42.154;23.002;2024-03-08T03:53:09;97221.59;;;5.72;100.00
36630;BME280;36256;42.154;23.002;2024-03-08T03:55:37;97209.59;;;5.75;100.00
36630;BME280;36256;42.154;23.002;2024-03-08T03:58:07;97218.56;;;5.86;100.00
36630;BME280;36256;42.154;23.002;2024-03-08T04:00:35;97214.00;;;5.96;100.00
36630;BME280;36256;42.154;23.002;2024-03-08T04:03:02;97215.31;;;5.91;100.00
36630;BME280;36256;42.154;23.002;2024-03-08T04:05:28;97224.75;;;5.97;100.00
36630;BME280;36256;42.154;23.002;2024-03-08T04:07:55;97231.09;;;5.98;100.00
36630;BME280;36256;42.154;23.002;2024-03-08T04:10:25;97228.66;;;6.00;100.00
36630;BME280;36256;42.154;23.002;2024-03-08T04:12:58;97222.44;;;5.92;100.00
36630;BME280;36256;42.154;23.002;2024-03-08T04:15:25;97236.59;;;6.01;100.00
36630;BME280;36256;42.154;23.002;2024-03-08T04:17:52;97225.94;;;5.96;100.00
36630;BME280;36256;42.154;23.002;2024-03-08T04:20:19;97241.47;;;5.97;100.00
36630;BME280;36256;42.154;23.002;2024-03-08T04:22:47;97245.69;;;6.05;100.00
36630;BME280;36256;42.154;23.002;2024-03-08T04:25:16;97248.28;;;6.16;100.00
36630;BME280;36256;42.154;23.002;2024-03-08T04:27:43;97242.63;;;6.19;100.00
36630;BME280;36256;42.154;23.002;2024-03-08T04:30:11;97234.34;;;6.16;100.00
36630;BME280;36256;42.154;23.002;2024-03-08T04:32:38;97238.47;;;6.27;100.00
36630;BME280;36256;42.154;23.002;2024-03-08T04:35:05;97255.00;;;6.38;100.00
36630;BME280;36256;42.154;23.002;2024-03-08T04:37:32;97249.03;;;6.40;100.00
36630;BME280;36256;42.154;23.002;2024-03-08T04:39:59;97256.50;;;6.43;100.00
36630;BME280;36256;42.154;23.002;2024-03-08T04:42:29;97259.59;;;6.48;100.00
36630;BME280;36256;42.154;23.002;2024-03-08T04:44:56;97263.47;;;6.54;100.00
36630;BME280;36256;42.154;23.002;2024-03-08T04:47:24;97263.47;;;6.54;100.00
36630;BME280;36256;42.154;23.002;2024-03-08T04:49:54;97267.88;;;6.52;100.00
36630;BME280;36256;42.154;23.002;2024-03-08T04:52:22;97271.38;;;6.56;100.00
36630;BME280;36256;42.154;23.002;2024-03-08T04:54:49;97264.97;;;6.59;100.00
36630;BME280;36256;42.154;23.002;2024-03-08T04:57:16;97265.69;;;6.63;100.00
36630;BME280;36256;42.154;23.002;2024-03-08T04:59:45;97270.38;;;6.66;100.00
36630;BME280;36256;42.154;23.002;2024-03-08T05:02:12;97269.38;;;6.76;100.00
36630;BME280;36256;42.154;23.002;2024-03-08T05:04:39;97266.53;;;6.79;100.00
36630;BME280;36256;42.154;23.002;2024-03-08T05:07:05;97269.91;;;6.90;100.00
36630;BME280;36256;42.154;23.002;2024-03-08T05:09:32;97273.97;;;6.86;100.00
36630;BME280;36256;42.154;23.002;2024-03-08T05:12:00;97284.69;;;6.87;100.00
36630;BME280;36256;42.154;23.002;2024-03-08T05:14:28;97279.56;;;6.86;100.00
36630;BME280;36256;42.154;23.002;2024-03-08T05:16:56;97290.53;;;6.93;100.00
36630;BME280;36256;42.154;23.002;2024-03-08T05:19:22;97283.41;;;6.92;100.00
36630;BME280;36256;42.154;23.002;2024-03-08T05:21:50;97295.34;;;6.92;100.00
36630;BME280;36256;42.154;23.002;2024-03-08T05:24:17;97280.41;;;6.83;100.00
36630;BME280;36256;42.154;23.002;2024-03-08T05:26:46;97291.41;;;6.90;100.00
36630;BME280;36256;42.154;23.002;2024-03-08T05:29:13;97304.06;;;6.94;100.00
36630;BME280;36256;42.154;23.002;2024-03-08T05:31:51;97309.56;;;6.78;100.00
36630;BME280;36256;42.154;23.002;2024-03-08T05:34:21;97308.50;;;6.92;100.00
36630;BME280;36256;42.154;23.002;2024-03-08T05:36:49;97313.16;;;6.79;100.00
36630;BME280;36256;42.154;23.002;2024-03-08T05:39:19;97324.53;;;6.88;100.00
36630;BME280;36256;42.154;23.002;2024-03-08T05:41:48;97327.31;;;6.88;100.00
36630;BME280;36256;42.154;23.002;2024-03-08T05:44:15;97331.19;;;6.94;100.00
36630;BME280;36256;42.154;23.002;2024-03-08T05:46:45;97330.81;;;6.92;100.00
36630;BME280;36256;42.154;23.002;2024-03-08T05:49:14;97329.25;;;6.91;100.00
36630;BME280;36256;42.154;23.002;2024-03-08T05:51:41;97339.41;;;7.01;100.00
36630;BME280;36256;42.154;23.002;2024-03-08T05:54:11;97339.59;;;7.10;100.00
36630;BME280;36256;42.154;23.002;2024-03-08T05:56:42;97340.31;;;7.14;100.00
36630;BME280;36256;42.154;23.002;2024-03-08T05:59:11;97341.97;;;7.11;100.00
36630;BME280;36256;42.154;23.002;2024-03-08T06:01:38;97340.31;;;7.14;100.00
36630;BME280;36256;42.154;23.002;2024-03-08T06:04:11;97335.44;;;7.18;100.00
36630;BME280;36256;42.154;23.002;2024-03-08T06:06:39;97340.88;;;7.25;100.00
36630;BME280;36256;42.154;23.002;2024-03-08T06:09:12;97343.19;;;7.30;100.00
36630;BME280;36256;42.154;23.002;2024-03-08T06:11:47;97347.03;;;7.36;100.00
36630;BME280;36256;42.154;23.002;2024-03-08T06:14:17;97350.44;;;7.44;100.00
36630;BME280;36256;42.154;23.002;2024-03-08T06:16:47;97349.16;;;7.48;100.00
36630;BME280;36256;42.154;23.002;2024-03-08T06:19:17;97353.00;;;7.54;100.00
36630;BME280;36256;42.154;23.002;2024-03-08T06:21:43;97341.81;;;7.38;100.00
36630;BME280;36256;42.154;23.002;2024-03-08T06:24:17;97356.97;;;7.37;100.00
36630;BME280;36256;42.154;23.002;2024-03-08T06:26:44;97357.50;;;7.32;100.00
36630;BME280;36256;42.154;23.002;2024-03-08T06:29:11;97355.91;;;7.31;100.00
36630;BME280;36256;42.154;23.002;2024-03-08T06:31:39;97359.75;;;7.37;100.00
36630;BME280;36256;42.154;23.002;2024-03-08T06:34:06;97361.34;;;7.38;100.00
36630;BME280;36256;42.154;23.002;2024-03-08T06:36:35;97369.22;;;7.43;100.00
36630;BME280;36256;42.154;23.002;2024-03-08T06:39:04;97363.56;;;7.47;100.00
36630;BME280;36256;42.154;23.002;2024-03-08T06:41:36;97365.66;;;7.59;100.00
36630;BME280;36256;42.154;23.002;2024-03-08T06:44:03;97365.59;;;7.62;100.00
36630;BME280;36256;42.154;23.002;2024-03-08T06:46:30;97366.47;;;7.75;100.00
36630;BME280;36256;42.154;23.002;2024-03-08T06:48:57;97363.88;;;7.68;100.00
36630;BME280;36256;42.154;23.002;2024-03-08T06:51:24;97362.38;;;7.64;100.00
36630;BME280;36256;42.154;23.002;2024-03-08T06:53:51;97376.09;;;7.74;100.00
36630;BME280;36256;42.154;23.002;2024-03-08T06:56:18;97371.72;;;7.73;100.00
36630;BME280;36256;42.154;23.002;2024-03-08T06:58:46;97378.00;;;7.77;100.00
36630;BME280;36256;42.154;23.002;2024-03-08T07:01:13;97375.41;;;7.86;100.00
36630;BME280;36256;42.154;23.002;2024-03-08T07:03:41;97385.88;;;7.82;99.43
36630;BME280;36256;42.154;23.002;2024-03-08T07:06:11;97373.06;;;7.85;100.00
36630;BME280;36256;42.154;23.002;2024-03-08T07:08:39;97384.69;;;8.00;100.00
36630;BME280;36256;42.154;23.002;2024-03-08T07:11:07;97388.88;;;8.08;100.00
36630;BME280;36256;42.154;23.002;2024-03-08T07:13:42;97394.97;;;8.03;100.00
36630;BME280;36256;42.154;23.002;2024-03-08T07:16:12;97390.13;;;8.07;99.32
36630;BME280;36256;42.154;23.002;2024-03-08T07:18:39;97384.69;;;8.00;99.73
36630;BME280;36256;42.154;23.002;2024-03-08T07:21:18;97384.16;;;8.05;98.77
36630;BME280;36256;42.154;23.002;2024-03-08T07:23:46;97377.00;;;8.04;98.96
36630;BME280;36256;42.154;23.002;2024-03-08T07:26:20;97382.25;;;8.18;99.08
36630;BME280;36256;42.154;23.002;2024-03-08T07:28:47;97377.00;;;8.20;98.23
36630;BME280;36256;42.154;23.002;2024-03-08T07:31:13;97383.13;;;8.15;95.18
36630;BME280;36256;42.154;23.002;2024-03-08T07:33:52;97386.09;;;8.08;97.06
36630;BME280;36256;42.154;23.002;2024-03-08T07:36:21;97378.41;;;8.12;98.18
36630;BME280;36256;42.154;23.002;2024-03-08T07:38:48;97389.06;;;8.17;96.81
36630;BME280;36256;42.154;23.002;2024-03-08T07:41:15;97380.34;;;8.15;95.88
36630;BME280;36256;42.154;23.002;2024-03-08T07:43:42;97394.13;;;8.06;97.04
36630;BME280;36256;42.154;23.002;2024-03-08T07:46:09;97391.06;;;8.00;98.30
36630;BME280;36256;42.154;23.002;2024-03-08T07:48:36;97390.19;;;8.03;98.81
36630;BME280;36256;42.154;23.002;2024-03-08T07:51:03;97394.63;;;8.01;99.01
36630;BME280;36256;42.154;23.002;2024-03-08T07:53:30;97392.38;;;8.12;98.37
36630;BME280;36256;42.154;23.002;2024-03-08T07:55:57;97396.41;;;8.11;96.46
36630;BME280;36256;42.154;23.002;2024-03-08T07:58:24;97397.81;;;8.19;96.47
36630;BME280;36256;42.154;23.002;2024-03-08T08:00:51;97398.84;;;8.25;96.17
36630;BME280;36256;42.154;23.002;2024-03-08T08:03:17;97398.84;;;8.25;97.25
36630;BME280;36256;42.154;23.002;2024-03-08T08:05:47;97382.59;;;8.20;94.52
36630;BME280;36256;42.154;23.002;2024-03-08T08:08:15;97393.38;;;8.37;93.34
36630;BME280;36256;42.154;23.002;2024-03-08T08:10:49;97389.44;;;8.35;93.63
36630;BME280;36256;42.154;23.002;2024-03-08T08:13:16;97389.97;;;8.46;92.54
36630;BME280;36256;42.154;23.002;2024-03-08T08:15:44;97392.94;;;8.55;93.84
36630;BME280;36256;42.154;23.002;2024-03-08T08:18:18;97400.53;;;8.54;93.58
36630;BME280;36256;42.154;23.002;2024-03-08T08:21:10;97393.44;;;8.66;92.18
36630;BME280;36256;42.154;23.002;2024-03-08T08:23:39;97396.97;;;8.70;93.47
36630;BME280;36256;42.154;23.002;2024-03-08T08:26:06;97393.59;;;8.75;94.47
36630;BME280;36256;42.154;23.002;2024-03-08T08:28:34;97394.91;;;8.70;92.84
36630;BME280;36256;42.154;23.002;2024-03-08T08:31:01;97398.69;;;8.80;92.47
36630;BME280;36256;42.154;23.002;2024-03-08T08:33:27;97394.13;;;8.86;93.99
36630;BME280;36256;42.154;23.002;2024-03-08T08:35:57;97405.13;;;8.93;93.63
36630;BME280;36256;42.154;23.002;2024-03-08T08:38:24;97396.41;;;8.91;93.54
36630;BME280;36256;42.154;23.002;2024-03-08T08:40:51;97393.50;;;8.95;93.49
36630;BME280;36256;42.154;23.002;2024-03-08T08:43:19;97391.53;;;9.08;92.42
36630;BME280;36256;42.154;23.002;2024-03-08T08:45:47;97391.25;;;9.18;92.96
36630;BME280;36256;42.154;23.002;2024-03-08T08:48:21;97386.31;;;9.22;92.91
36630;BME280;36256;42.154;23.002;2024-03-08T08:50:48;97389.25;;;9.31;91.78
36630;BME280;36256;42.154;23.002;2024-03-08T08:53:15;97373.16;;;9.35;89.09
36630;BME280;36256;42.154;23.002;2024-03-08T08:55:43;97368.53;;;9.29;89.76
36630;BME280;36256;42.154;23.002;2024-03-08T08:58:12;97379.31;;;9.43;89.80
36630;BME280;36256;42.154;23.002;2024-03-08T09:00:40;97380.00;;;9.47;88.90
36630;BME280;36256;42.154;23.002;2024-03-08T09:03:07;97368.69;;;9.50;87.36
36630;BME280;36256;42.154;23.002;2024-03-08T09:05:33;97378.69;;;9.64;89.38
36630;BME280;36256;42.154;23.002;2024-03-08T09:08:04;97377.50;;;10.03;88.27
36630;BME280;36256;42.154;23.002;2024-03-08T09:10:31;97364.16;;;10.07;84.31
36630;BME280;36256;42.154;23.002;2024-03-08T09:12:58;97364.84;;;10.11;83.81
36630;BME280;36256;42.154;23.002;2024-03-08T09:15:26;97363.81;;;10.05;82.87
36630;BME280;36256;42.154;23.002;2024-03-08T09:17:55;97362.91;;;10.08;85.18
36630;BME280;36256;42.154;23.002;2024-03-08T09:20:22;97371.25;;;10.11;83.80
36630;BME280;36256;42.154;23.002;2024-03-08T09:22:49;97355.75;;;9.82;83.59
36630;BME280;36256;42.154;23.002;2024-03-08T09:25:15;97362.91;;;10.33;82.80
36630;BME280;36256;42.154;23.002;2024-03-08T09:27:42;97350.00;;;11.91;76.58
36630;BME280;36256;42.154;23.002;2024-03-08T09:30:09;97348.88;;;13.31;69.75
36630;BME280;36256;42.154;23.002;2024-03-08T09:32:39;97339.38;;;13.79;63.62
36630;BME280;36256;42.154;23.002;2024-03-08T09:35:07;97344.19;;;13.28;65.91
36630;BME280;36256;42.154;23.002;2024-03-08T09:37:34;97338.13;;;12.44;65.40
36630;BME280;36256;42.154;23.002;2024-03-08T09:40:01;97347.09;;;12.12;66.54
36630;BME280;36256;42.154;23.002;2024-03-08T09:42:31;97348.09;;;11.88;68.93
36630;BME280;36256;42.154;23.002;2024-03-08T09:44:58;97351.53;;;11.61;69.30
36630;BME280;36256;42.154;23.002;2024-03-08T09:47:27;97366.16;;;11.34;72.46
36630;BME280;36256;42.154;23.002;2024-03-08T09:50:00;97361.53;;;11.19;72.61
36630;BME280;36256;42.154;23.002;2024-03-08T09:52:29;97360.94;;;11.24;76.03
36630;BME280;36256;42.154;23.002;2024-03-08T09:54:57;97365.00;;;11.23;74.42
36630;BME280;36256;42.154;23.002;2024-03-08T09:57:25;97355.13;;;11.18;73.52
36630;BME280;36256;42.154;23.002;2024-03-08T09:59:52;97345.19;;;11.26;73.02
36630;BME280;36256;42.154;23.002;2024-03-08T10:02:19;97355.06;;;11.31;72.54
36630;BME280;36256;42.154;23.002;2024-03-08T10:04:47;97358.66;;;11.31;71.26
36630;BME280;36256;42.154;23.002;2024-03-08T10:07:14;97352.25;;;11.31;69.08
36630;BME280;36256;42.154;23.002;2024-03-08T10:09:42;97358.84;;;11.37;75.27
36630;BME280;36256;42.154;23.002;2024-03-08T10:12:15;97345.34;;;11.23;69.90
36630;BME280;36256;42.154;23.002;2024-03-08T10:14:41;97345.66;;;11.25;72.61
36630;BME280;36256;42.154;23.002;2024-03-08T10:17:09;97348.97;;;11.32;73.68
36630;BME280;36256;42.154;23.002;2024-03-08T10:19:36;97341.16;;;11.49;70.54
36630;BME280;36256;42.154;23.002;2024-03-08T10:22:03;97340.34;;;11.70;69.28
36630;BME280;36256;42.154;23.002;2024-03-08T10:24:31;97345.59;;;11.90;75.57
36630;BME280;36256;42.154;23.002;2024-03-08T10:27:03;97333.63;;;11.98;70.33
36630;BME280;36256;42.154;23.002;2024-03-08T10:29:33;97326.44;;;12.06;64.43
36630;BME280;36256;42.154;23.002;2024-03-08T10:32:01;97327.41;;;12.03;67.86
36630;BME280;36256;42.154;23.002;2024-03-08T10:34:28;97316.16;;;12.03;65.97
36630;BME280;36256;42.154;23.002;2024-03-08T10:37:04;97326.13;;;12.04;64.59
36630;BME280;36256;42.154;23.002;2024-03-08T10:39:35;97316.94;;;12.13;65.38
36630;BME280;36256;42.154;23.002;2024-03-08T10:42:03;97308.72;;;12.36;64.36
36630;BME280;36256;42.154;23.002;2024-03-08T10:44:34;97305.34;;;12.59;63.10
36630;BME280;36256;42.154;23.002;2024-03-08T10:47:27;97295.50;;;12.82;64.17
36630;BME280;36256;42.154;23.002;2024-03-08T10:50:15;97282.22;;;12.92;63.07
36630;BME280;36256;42.154;23.002;2024-03-08T10:52:51;97286.88;;;12.95;63.18
36630;BME280;36256;42.154;23.002;2024-03-08T10:55:19;97272.78;;;12.95;61.81
36630;BME280;36256;42.154;23.002;2024-03-08T10:57:49;97289.56;;;13.16;62.47
36630;BME280;36256;42.154;23.002;2024-03-08T11:00:15;97279.69;;;13.12;62.87
36630;BME280;36256;42.154;23.002;2024-03-08T11:02:43;97276.56;;;13.10;63.13
36630;BME280;36256;42.154;23.002;2024-03-08T11:05:10;97279.06;;;12.99;62.71
36630;BME280;36256;42.154;23.002;2024-03-08T11:07:42;97273.91;;;12.61;58.37
36630;BME280;36256;42.154;23.002;2024-03-08T11:10:19;97265.91;;;12.41;59.16
36630;BME280;36256;42.154;23.002;2024-03-08T11:12:46;97251.84;;;12.32;58.60
36630;BME280;36256;42.154;23.002;2024-03-08T11:15:15;97250.28;;;12.40;58.06
36630;BME280;36256;42.154;23.002;2024-03-08T11:17:47;97247.78;;;12.51;57.64
36630;BME280;36256;42.154;23.002;2024-03-08T11:20:17;97242.78;;;12.83;58.95
36630;BME280;36256;42.154;23.002;2024-03-08T11:22:49;97248.72;;;13.03;58.83
36630;BME280;36256;42.154;23.002;2024-03-08T11:25:38;97234.78;;;12.99;59.23
36630;BME280;36256;42.154;23.002;2024-03-08T11:28:23;97240.72;;;13.01;59.83
36630;BME280;36256;42.154;23.002;2024-03-08T11:33:39;97229.34;;;13.05;58.10
36630;BME280;36256;42.154;23.002;2024-03-08T11:36:11;97223.38;;;13.03;57.88
36630;BME280;36256;42.154;23.002;2024-03-08T11:38:43;97219.44;;;13.09;56.72
36630;BME280;36256;42.154;23.002;2024-03-08T11:41:10;97223.97;;;13.25;55.46
36630;BME280;36256;42.154;23.002;2024-03-08T11:43:44;97211.78;;;13.19;53.98
36630;BME280;36256;42.154;23.002;2024-03-08T11:46:13;97205.53;;;13.15;52.85
36630;BME280;36256;42.154;23.002;2024-03-08T11:48:40;97202.72;;;13.06;52.79
36630;BME280;36256;42.154;23.002;2024-03-08T11:51:15;97203.50;;;13.06;53.19
36630;BME280;36256;42.154;23.002;2024-03-08T11:53:42;97205.69;;;13.11;56.12
36630;BME280;36256;42.154;23.002;2024-03-08T11:56:14;97201.78;;;13.09;55.79
36630;BME280;36256;42.154;23.002;2024-03-08T11:58:41;97206.56;;;13.26;56.32
36630;BME280;36256;42.154;23.002;2024-03-08T12:01:11;97203.22;;;13.46;53.36
36630;BME280;36256;42.154;23.002;2024-03-08T12:03:41;97206.81;;;13.56;52.31
36630;BME280;36256;42.154;23.002;2024-03-08T12:06:11;97200.38;;;13.55;54.25
36630;BME280;36256;42.154;23.002;2024-03-08T12:08:40;97198.59;;;13.34;55.19
36630;BME280;36256;42.154;23.002;2024-03-08T12:11:06;97202.00;;;13.38;54.80
36630;BME280;36256;42.154;23.002;2024-03-08T12:13:34;97204.00;;;13.47;55.89
36630;BME280;36256;42.154;23.002;2024-03-08T12:16:04;97198.56;;;13.43;53.40
36630;BME280;36256;42.154;23.002;2024-03-08T12:18:38;97197.66;;;13.28;54.52
36630;BME280;36256;42.154;23.002;2024-03-08T12:21:09;97201.16;;;13.05;55.01
36630;BME280;36256;42.154;23.002;2024-03-08T12:23:38;97190.19;;;12.98;55.23
36630;BME280;36256;42.154;23.002;2024-03-08T12:26:12;97188.63;;;12.97;52.15
36630;BME280;36256;42.154;23.002;2024-03-08T12:28:40;97184.25;;;12.87;55.46
36630;BME280;36256;42.154;23.002;2024-03-08T12:31:12;97186.63;;;12.88;53.83
36630;BME280;36256;42.154;23.002;2024-03-08T12:33:51;97185.97;;;12.84;52.72
36630;BME280;36256;42.154;23.002;2024-03-08T12:36:22;97180.22;;;12.88;53.78
36630;BME280;36256;42.154;23.002;2024-03-08T12:38:49;97170.50;;;12.89;54.65
36630;BME280;36256;42.154;23.002;2024-03-08T12:41:20;97182.69;;;12.95;53.36
36630;BME280;36256;42.154;23.002;2024-03-08T12:43:48;97189.59;;;12.85;54.12
36630;BME280;36256;42.154;23.002;2024-03-08T12:46:16;97187.38;;;12.89;53.42
36630;BME280;36256;42.154;23.002;2024-03-08T12:48:43;97174.25;;;12.86;53.55
36630;BME280;36256;42.154;23.002;2024-03-08T12:51:14;97183.03;;;12.88;53.17
36630;BME280;36256;42.154;23.002;2024-03-08T12:53:42;97174.84;;;12.99;56.58
36630;BME280;36256;42.154;23.002;2024-03-08T12:56:31;97184.88;;;12.91;55.39
36630;BME280;36256;42.154;23.002;2024-03-08T12:59:01;97186.16;;;12.90;57.27
36630;BME280;36256;42.154;23.002;2024-03-08T13:01:28;97187.06;;;12.96;56.11
36630;BME280;36256;42.154;23.002;2024-03-08T13:03:56;97184.25;;;12.96;55.30